createdAt,value
2019-04-27T00:00:00.285Z,9.00
2019-04-27T00:02:38.084Z,9.00
2019-04-27T00:05:18.873Z,9.00
2019-04-27T00:08:06.160Z,9.00
2019-04-27T00:10:55.769Z,9.00
2019-04-27T00:13:25.294Z,9.00
2019-04-27T00:16:09.967Z,9.00
2019-04-27T00:19:15.768Z,9.10
2019-04-27T00:22:00.372Z,9.10
2019-04-27T00:24:30.057Z,9.10
2019-04-27T00:26:59.833Z,9.10
2019-04-27T00:29:30.089Z,9.10
2019-04-27T00:31:59.479Z,9.10
2019-04-27T00:34:29.033Z,9.20
2019-04-27T00:37:10.693Z,9.20
2019-04-27T00:39:59.332Z,9.20
2019-04-27T00:42:29.471Z,9.30
2019-04-27T00:44:58.900Z,9.30
2019-04-27T00:47:28.594Z,9.30
2019-04-27T00:49:57.976Z,9.30
2019-04-27T00:52:27.524Z,9.20
2019-04-27T00:54:57.181Z,9.20
2019-04-27T00:57:55.126Z,9.10
2019-04-27T01:00:33.803Z,9.00
2019-04-27T01:03:13.954Z,8.90
2019-04-27T01:05:43.738Z,8.90
2019-04-27T01:08:13.912Z,8.80
2019-04-27T01:10:43.609Z,8.80
2019-04-27T01:13:13.314Z,8.80
2019-04-27T01:15:43.126Z,8.60
2019-04-27T01:18:15.338Z,8.60
2019-04-27T01:20:43.569Z,8.50
2019-04-27T01:23:13.005Z,8.50
2019-04-27T01:26:01.487Z,8.40
2019-04-27T01:28:35.797Z,8.40
2019-04-27T01:31:09.172Z,8.40
2019-04-27T01:33:39.054Z,8.40
2019-04-27T01:36:08.933Z,8.30
2019-04-27T01:38:40.988Z,8.20
2019-04-27T01:41:10.879Z,8.20
2019-04-27T01:43:40.308Z,8.10
2019-04-27T01:46:09.984Z,8.00
2019-04-27T01:48:39.406Z,8.00
2019-04-27T01:51:09.230Z,7.90
2019-04-27T01:53:39.093Z,7.90
2019-04-27T01:56:09.218Z,7.90
2019-04-27T01:58:39.277Z,7.80
2019-04-27T02:01:28.936Z,7.80
2019-04-27T02:04:11.157Z,7.80
2019-04-27T02:06:40.591Z,7.80
2019-04-27T02:09:14.375Z,7.70
2019-04-27T02:11:43.803Z,7.70
2019-04-27T02:14:14.186Z,7.70
2019-04-27T02:16:43.582Z,7.60
2019-04-27T02:19:13.026Z,7.50
2019-04-27T02:21:42.786Z,7.50
2019-04-27T02:24:12.222Z,7.40
2019-04-27T02:26:41.601Z,7.40
2019-04-27T02:29:19.677Z,7.40
2019-04-27T02:32:10.873Z,7.40
2019-04-27T02:34:53.817Z,7.40
2019-04-27T02:37:23.219Z,7.40
2019-04-27T02:39:52.636Z,7.30
2019-04-27T02:42:23.851Z,7.30
2019-04-27T02:44:53.717Z,7.20
2019-04-27T02:47:23.110Z,7.20
2019-04-27T02:49:52.545Z,7.10
2019-04-27T02:52:33.938Z,7.10
2019-04-27T02:55:04.041Z,7.00
2019-04-27T02:57:33.436Z,7.00
2019-04-27T03:00:03.143Z,7.00
2019-04-27T03:02:45.593Z,6.90
2019-04-27T03:05:24.946Z,6.90
2019-04-27T03:07:54.511Z,6.80
2019-04-27T03:10:25.764Z,6.90
2019-04-27T03:13:03.095Z,6.90
2019-04-27T03:15:42.085Z,7.00
2019-04-27T03:18:19.552Z,7.00
2019-04-27T03:20:53.593Z,7.00
2019-04-27T03:23:23.069Z,6.90
2019-04-27T03:26:14.450Z,6.90
2019-04-27T03:28:44.445Z,7.00
2019-04-27T03:31:14.407Z,6.90
2019-04-27T03:33:44.072Z,7.00
2019-04-27T03:36:13.562Z,7.00
2019-04-27T03:38:43.174Z,7.00
2019-04-27T03:41:12.683Z,7.00
2019-04-27T03:43:42.079Z,7.00
2019-04-27T03:46:11.813Z,6.90
2019-04-27T03:48:41.186Z,6.90
2019-04-27T03:51:29.933Z,6.90
2019-04-27T03:54:19.403Z,6.80
2019-04-27T03:56:52.389Z,6.90
2019-04-27T03:59:32.582Z,6.90
2019-04-27T04:02:02.557Z,6.90
2019-04-27T04:04:32.733Z,6.90
2019-04-27T04:07:21.338Z,6.80
2019-04-27T04:09:50.737Z,6.80
2019-04-27T04:12:26.069Z,6.90
2019-04-27T04:14:55.458Z,6.90
2019-04-27T04:17:25.079Z,6.80
2019-04-27T04:19:58.510Z,6.90
2019-04-27T04:22:25.815Z,6.90
2019-04-27T04:24:55.199Z,6.90
2019-04-27T04:27:24.907Z,7.00
2019-04-27T04:29:54.313Z,6.90
2019-04-27T04:32:23.782Z,7.00
2019-04-27T04:34:53.157Z,7.00
2019-04-27T04:37:22.831Z,7.00
2019-04-27T04:39:53.469Z,7.00
2019-04-27T04:42:33.068Z,7.00
2019-04-27T04:45:20.152Z,7.00
2019-04-27T04:48:00.972Z,7.30
2019-04-27T04:50:30.648Z,8.00
2019-04-27T04:53:00.130Z,8.60
2019-04-27T04:55:30.649Z,8.80
2019-04-27T04:58:00.531Z,8.90
2019-04-27T05:00:30.103Z,9.50
2019-04-27T05:02:59.668Z,9.40
2019-04-27T05:05:29.387Z,9.70
2019-04-27T05:08:00.690Z,10.00
2019-04-27T05:10:31.208Z,10.50
2019-04-27T05:13:01.826Z,10.90
2019-04-27T05:15:31.205Z,10.60
2019-04-27T05:18:00.629Z,10.80
2019-04-27T05:20:39.691Z,11.00
2019-04-27T05:23:09.742Z,11.10
2019-04-27T05:25:39.226Z,10.90
2019-04-27T05:28:09.758Z,10.90
2019-04-27T05:30:39.715Z,11.30
2019-04-27T05:33:09.516Z,11.30
2019-04-27T05:35:41.059Z,11.40
2019-04-27T05:38:13.068Z,11.00
2019-04-27T05:40:41.705Z,11.00
2019-04-27T05:43:12.694Z,10.90
2019-04-27T05:46:40.299Z,10.70
2019-04-27T05:49:14.451Z,10.80
2019-04-27T05:51:43.846Z,11.40
2019-04-27T05:54:13.280Z,11.80
2019-04-27T05:56:42.709Z,12.20
2019-04-27T05:59:14.621Z,12.80
2019-04-27T06:01:43.245Z,13.20
2019-04-27T06:04:13.007Z,13.60
2019-04-27T06:06:42.543Z,14.20
2019-04-27T06:09:11.954Z,14.40
2019-04-27T06:11:41.901Z,14.40
2019-04-27T06:14:11.608Z,14.00
2019-04-27T06:16:41.027Z,13.50
2019-04-27T06:19:10.441Z,13.00
2019-04-27T06:21:40.199Z,13.00
2019-04-27T06:24:09.637Z,13.00
2019-04-27T06:26:39.941Z,13.20
2019-04-27T06:29:10.007Z,13.20
2019-04-27T06:31:39.795Z,13.20
2019-04-27T06:34:09.937Z,13.20
2019-04-27T06:36:39.385Z,13.10
2019-04-27T06:39:10.043Z,12.90
2019-04-27T06:41:39.964Z,12.90
2019-04-27T06:44:11.324Z,13.00
2019-04-27T06:46:41.161Z,13.20
2019-04-27T06:49:11.036Z,13.10
2019-04-27T06:51:40.780Z,13.20
2019-04-27T06:54:10.222Z,13.30
2019-04-27T06:56:39.669Z,13.40
2019-04-27T06:59:09.057Z,13.50
2019-04-27T07:01:39.200Z,13.60
2019-04-27T07:04:10.836Z,13.60
2019-04-27T07:06:52.914Z,13.80
2019-04-27T07:09:12.260Z,13.90
2019-04-27T07:11:41.692Z,14.00
2019-04-27T07:14:11.619Z,14.20
2019-04-27T07:16:41.546Z,14.50
2019-04-27T07:19:10.969Z,14.60
2019-04-27T07:21:40.925Z,14.70
2019-04-27T07:24:10.353Z,15.00
2019-04-27T07:26:39.938Z,15.40
2019-04-27T07:29:09.693Z,15.50
2019-04-27T07:31:40.122Z,15.60
2019-04-27T07:34:09.699Z,15.20
2019-04-27T07:36:39.472Z,15.00
2019-04-27T07:39:11.599Z,15.30
2019-04-27T07:41:41.019Z,14.90
2019-04-27T07:44:22.749Z,15.10
2019-04-27T07:47:09.882Z,15.00
2019-04-27T07:49:39.388Z,14.80
2019-04-27T07:52:09.004Z,14.90
2019-04-27T07:54:40.731Z,15.10
2019-04-27T07:57:09.917Z,14.90
2019-04-27T07:59:41.796Z,15.10
2019-04-27T08:02:11.095Z,15.20
2019-04-27T08:04:40.608Z,15.10
2019-04-27T08:07:10.121Z,15.20
2019-04-27T08:09:39.915Z,15.00
2019-04-27T08:12:10.878Z,15.00
2019-04-27T08:14:40.651Z,15.30
2019-04-27T08:17:10.360Z,15.50
2019-04-27T08:19:40.053Z,15.40
2019-04-27T08:22:09.838Z,15.60
2019-04-27T08:24:39.695Z,15.40
2019-04-27T08:27:23.766Z,15.90
2019-04-27T08:30:19.460Z,16.40
2019-04-27T08:32:49.920Z,16.70
2019-04-27T08:35:19.557Z,16.20
2019-04-27T08:37:49.498Z,15.50
2019-04-27T08:40:19.383Z,15.70
2019-04-27T08:42:51.175Z,15.90
2019-04-27T08:45:20.525Z,15.80
2019-04-27T08:47:50.213Z,15.60
2019-04-27T08:50:19.643Z,15.30
2019-04-27T08:52:50.216Z,14.80
2019-04-27T08:55:19.795Z,14.90
2019-04-27T08:57:49.265Z,14.90
2019-04-27T09:00:19.776Z,14.70
2019-04-27T09:02:50.266Z,14.50
2019-04-27T09:05:25.707Z,14.40
2019-04-27T09:08:24.677Z,14.40
2019-04-27T09:11:13.066Z,14.40
2019-04-27T09:14:13.775Z,14.60
2019-04-27T09:16:59.670Z,14.60
2019-04-27T09:19:29.187Z,14.30
2019-04-27T09:22:16.011Z,14.30
2019-04-27T09:24:39.776Z,14.20
2019-04-27T09:27:09.702Z,14.10
2019-04-27T09:29:39.676Z,14.10
2019-04-27T09:32:09.145Z,14.40
2019-04-27T09:34:38.543Z,14.50
2019-04-27T09:37:08.033Z,14.60
2019-04-27T09:39:37.754Z,14.50
2019-04-27T09:42:07.190Z,14.50
2019-04-27T09:44:37.063Z,14.20
2019-04-27T09:47:06.625Z,14.10
2019-04-27T09:49:36.659Z,13.90
2019-04-27T09:52:07.074Z,13.70
2019-04-27T09:54:36.693Z,13.80
2019-04-27T09:57:06.982Z,13.90
2019-04-27T09:59:39.385Z,13.90
2019-04-27T10:02:08.727Z,14.10
2019-04-27T10:04:38.164Z,13.80
2019-04-27T10:07:07.699Z,13.90
2019-04-27T10:09:37.094Z,14.00
2019-04-27T10:12:07.450Z,14.20
2019-04-27T10:14:37.057Z,14.10
2019-04-27T10:17:06.577Z,14.10
2019-04-27T10:19:36.663Z,14.10
2019-04-27T10:22:06.695Z,13.90
2019-04-27T10:24:36.081Z,13.80
2019-04-27T10:27:07.853Z,13.60
2019-04-27T10:29:37.144Z,13.50
2019-04-27T10:32:06.560Z,13.60
2019-04-27T10:34:35.992Z,13.60
2019-04-27T10:37:06.061Z,13.70
2019-04-27T10:39:36.064Z,13.70
2019-04-27T10:42:06.813Z,13.80
2019-04-27T10:44:36.343Z,13.90
2019-04-27T10:47:06.010Z,14.00
2019-04-27T10:49:35.413Z,14.10
2019-04-27T10:52:05.919Z,14.20
2019-04-27T10:54:35.358Z,14.20
2019-04-27T10:57:06.079Z,14.10
2019-04-27T10:59:36.040Z,13.80
2019-04-27T11:02:05.646Z,13.80
2019-04-27T11:04:58.901Z,13.80
2019-04-27T11:07:32.890Z,13.80
2019-04-27T11:10:02.631Z,13.90
2019-04-27T11:12:32.066Z,13.90
2019-04-27T11:15:02.113Z,14.00
2019-04-27T11:17:31.517Z,13.80
2019-04-27T11:20:02.735Z,13.80
2019-04-27T11:22:32.289Z,13.90
2019-04-27T11:25:01.997Z,13.80
2019-04-27T11:27:31.433Z,14.00
2019-04-27T11:30:00.859Z,14.00
2019-04-27T11:32:30.612Z,14.10
2019-04-27T11:35:10.810Z,14.40
2019-04-27T11:37:40.326Z,14.60
2019-04-27T11:40:11.255Z,14.70
2019-04-27T11:42:40.966Z,14.80
2019-04-27T11:45:10.795Z,14.80
2019-04-27T11:47:40.239Z,14.60
2019-04-27T11:50:10.001Z,14.70
2019-04-27T11:52:39.440Z,14.50
2019-04-27T11:55:09.725Z,14.50
2019-04-27T11:57:39.930Z,14.50
2019-04-27T12:00:12.186Z,14.70
2019-04-27T12:02:41.871Z,14.90
2019-04-27T12:05:11.385Z,14.80
2019-04-27T12:07:40.898Z,14.90
2019-04-27T12:10:10.465Z,14.40
2019-04-27T12:12:39.907Z,14.20
2019-04-27T12:15:09.930Z,14.10
2019-04-27T12:17:39.353Z,14.10
2019-04-27T12:20:08.979Z,14.10
2019-04-27T12:22:38.415Z,14.00
2019-04-27T12:25:08.619Z,14.00
2019-04-27T12:28:02.948Z,14.10
2019-04-27T12:30:37.087Z,14.00
2019-04-27T12:33:06.871Z,14.10
2019-04-27T12:35:36.863Z,14.10
2019-04-27T12:38:06.317Z,13.90
2019-04-27T12:40:36.638Z,14.00
2019-04-27T12:43:06.481Z,14.20
2019-04-27T12:45:36.984Z,14.50
2019-04-27T12:48:06.947Z,14.40
2019-04-27T12:50:36.368Z,14.30
2019-04-27T12:53:07.960Z,14.70
2019-04-27T12:55:51.931Z,14.60
2019-04-27T12:58:58.268Z,14.90
2019-04-27T13:01:28.239Z,14.90
2019-04-27T13:03:59.291Z,14.80
2019-04-27T13:06:28.759Z,14.70
2019-04-27T13:08:58.204Z,14.90
2019-04-27T13:11:28.188Z,15.30
2019-04-27T13:13:57.786Z,15.40
2019-04-27T13:16:30.328Z,15.40
2019-04-27T13:18:59.125Z,15.50
2019-04-27T13:21:28.527Z,15.50
2019-04-27T13:24:04.251Z,15.60
2019-04-27T13:26:29.013Z,16.20
2019-04-27T13:28:58.467Z,16.40
2019-04-27T13:31:28.158Z,16.50
2019-04-27T13:33:57.854Z,16.40
2019-04-27T13:36:27.538Z,16.20
2019-04-27T13:38:56.970Z,15.80
2019-04-27T13:41:32.590Z,15.50
2019-04-27T13:43:57.759Z,15.20
2019-04-27T13:46:46.012Z,15.20
2019-04-27T13:49:32.346Z,15.10
2019-04-27T13:52:06.614Z,15.10
2019-04-27T13:54:39.810Z,14.90
2019-04-27T13:57:09.232Z,15.20
2019-04-27T13:59:38.939Z,15.20
2019-04-27T14:02:08.654Z,15.40
2019-04-27T14:04:38.059Z,15.50
2019-04-27T14:07:09.075Z,15.60
2019-04-27T14:09:39.319Z,15.70
2019-04-27T14:12:18.803Z,15.80
2019-04-27T14:14:50.184Z,15.60
2019-04-27T14:17:19.622Z,15.50
2019-04-27T14:19:48.996Z,15.30
2019-04-27T14:22:18.401Z,14.80
2019-04-27T14:24:48.743Z,14.80
2019-04-27T14:27:19.830Z,14.60
2019-04-27T14:29:49.260Z,14.40
2019-04-27T14:32:18.870Z,14.10
2019-04-27T14:34:50.279Z,14.10
2019-04-27T14:37:19.394Z,13.90
2019-04-27T14:39:49.104Z,11.90
2019-04-27T14:42:19.137Z,10.30
2019-04-27T14:44:49.076Z,9.40
2019-04-27T14:47:18.867Z,8.90
2019-04-27T14:49:49.129Z,8.80
2019-04-27T14:52:19.033Z,8.80
2019-04-27T14:54:50.830Z,8.90
2019-04-27T14:57:20.400Z,8.90
2019-04-27T14:59:50.251Z,8.80
2019-04-27T15:02:19.669Z,8.60
2019-04-27T15:04:49.404Z,8.60
2019-04-27T15:07:18.822Z,8.80
2019-04-27T15:09:49.529Z,8.80
2019-04-27T15:12:24.530Z,9.10
2019-04-27T15:14:53.334Z,9.30
2019-04-27T15:17:26.644Z,9.50
2019-04-27T15:19:59.317Z,9.60
2019-04-27T15:22:30.825Z,9.70
2019-04-27T15:25:12.548Z,9.90
2019-04-27T15:27:37.769Z,10.10
2019-04-27T15:30:11.448Z,10.40
2019-04-27T15:33:00.402Z,10.90
2019-04-27T15:35:40.644Z,10.50
2019-04-27T15:38:13.994Z,10.40
2019-04-27T15:41:02.511Z,10.40
2019-04-27T15:43:34.306Z,10.10
2019-04-27T15:46:03.752Z,10.00
2019-04-27T15:48:34.130Z,9.70
2019-04-27T15:51:09.553Z,9.40
2019-04-27T15:53:34.978Z,9.20
2019-04-27T15:56:04.427Z,9.30
2019-04-27T15:58:34.210Z,9.50
2019-04-27T16:01:09.068Z,9.90
2019-04-27T16:03:38.856Z,10.10
2019-04-27T16:06:11.798Z,10.30
2019-04-27T16:08:45.136Z,10.50
2019-04-27T16:11:16.660Z,10.70
2019-04-27T16:13:42.125Z,10.80
2019-04-27T16:16:11.544Z,10.90
2019-04-27T16:18:40.973Z,10.90
2019-04-27T16:21:11.003Z,11.10
2019-04-27T16:23:43.184Z,11.10
2019-04-27T16:26:14.929Z,11.10
2019-04-27T16:28:43.122Z,11.00
2019-04-27T16:31:14.248Z,10.90
2019-04-27T16:33:43.922Z,10.90
2019-04-27T16:36:13.323Z,10.90
2019-04-27T16:38:52.556Z,10.90
2019-04-27T16:41:21.994Z,10.90
2019-04-27T16:43:51.472Z,10.80
2019-04-27T16:46:21.361Z,10.80
2019-04-27T16:48:50.973Z,11.00
2019-04-27T16:51:20.707Z,11.10
2019-04-27T16:53:50.451Z,11.10
2019-04-27T16:56:20.828Z,11.00
2019-04-27T16:58:56.766Z,11.00
2019-04-27T17:01:24.373Z,11.00
2019-04-27T17:03:54.264Z,10.80
2019-04-27T17:06:23.855Z,10.80
2019-04-27T17:08:57.452Z,10.80
2019-04-27T17:11:24.590Z,10.80
2019-04-27T17:14:22.239Z,10.70
2019-04-27T17:17:03.653Z,10.80
2019-04-27T17:19:41.257Z,11.00
2019-04-27T17:22:10.374Z,11.00
2019-04-27T17:24:44.034Z,10.90
2019-04-27T17:27:11.692Z,11.00
2019-04-27T17:29:42.212Z,10.80
2019-04-27T17:32:25.508Z,10.80
2019-04-27T17:35:02.206Z,10.70
2019-04-27T17:37:29.924Z,10.50
2019-04-27T17:40:00.825Z,10.50
2019-04-27T17:42:30.848Z,10.10
2019-04-27T17:45:00.662Z,9.70
2019-04-27T17:47:30.230Z,8.90
2019-04-27T17:49:59.641Z,8.40
2019-04-27T17:52:29.032Z,7.90
2019-04-27T17:55:00.652Z,7.70
2019-04-27T17:57:30.485Z,7.70
2019-04-27T18:00:03.082Z,7.70
2019-04-27T18:02:33.833Z,7.70
2019-04-27T18:05:02.279Z,7.60
2019-04-27T18:07:34.965Z,7.60
2019-04-27T18:10:02.780Z,7.70
2019-04-27T18:12:32.162Z,7.70
2019-04-27T18:15:01.568Z,7.70
2019-04-27T18:17:32.152Z,7.70
2019-04-27T18:20:04.365Z,7.80
2019-04-27T18:22:39.661Z,8.00
2019-04-27T18:25:10.098Z,8.10
2019-04-27T18:27:50.373Z,8.10
2019-04-27T18:30:24.489Z,8.20
2019-04-27T18:32:59.383Z,8.20
2019-04-27T18:35:26.517Z,8.20
2019-04-27T18:38:00.850Z,8.20
2019-04-27T18:40:32.060Z,8.20
2019-04-27T18:43:02.064Z,8.20
2019-04-27T18:45:30.069Z,8.20
2019-04-27T18:48:06.609Z,8.20
2019-04-27T18:50:57.228Z,8.20
2019-04-27T18:53:28.822Z,8.30
2019-04-27T18:56:04.541Z,8.20
2019-04-27T18:58:29.686Z,8.30
2019-04-27T19:00:59.128Z,8.30
2019-04-27T19:03:31.113Z,8.30
2019-04-27T19:05:59.944Z,8.20
2019-04-27T19:08:29.330Z,8.10
2019-04-27T19:11:00.338Z,8.00
2019-04-27T19:13:30.118Z,8.00
2019-04-27T19:15:59.924Z,8.00
2019-04-27T19:18:29.580Z,7.80
2019-04-27T19:20:59.258Z,7.70
2019-04-27T19:23:29.370Z,7.50
2019-04-27T19:26:08.799Z,7.00
2019-04-27T19:28:59.406Z,6.80
2019-04-27T19:31:32.664Z,6.50
2019-04-27T19:34:02.050Z,6.10
2019-04-27T19:36:31.504Z,6.00
2019-04-27T19:39:00.922Z,5.90
2019-04-27T19:41:30.659Z,5.90
2019-04-27T19:44:00.324Z,5.90
2019-04-27T19:46:30.551Z,6.00
2019-04-27T19:49:00.329Z,6.00
2019-04-27T19:51:30.279Z,6.10
2019-04-27T19:53:59.687Z,6.10
2019-04-27T19:56:29.887Z,6.20
2019-04-27T19:59:01.763Z,6.30
2019-04-27T20:01:40.056Z,6.40
2019-04-27T20:04:16.409Z,6.40
2019-04-27T20:06:45.837Z,6.50
2019-04-27T20:09:20.201Z,6.50
2019-04-27T20:11:49.641Z,6.50
2019-04-27T20:14:20.868Z,6.40
2019-04-27T20:16:51.968Z,6.40
2019-04-27T20:19:21.624Z,6.40
2019-04-27T20:21:51.209Z,6.40
2019-04-27T20:24:22.732Z,6.40
2019-04-27T20:26:51.953Z,6.30
2019-04-27T20:29:21.835Z,6.40
2019-04-27T20:31:51.356Z,6.40
2019-04-27T20:34:22.832Z,6.50
2019-04-27T20:36:52.873Z,6.60
2019-04-27T20:39:22.659Z,6.60
2019-04-27T20:41:52.088Z,6.60
2019-04-27T20:44:21.618Z,6.60
2019-04-27T20:46:51.430Z,6.60
2019-04-27T20:49:21.463Z,6.60
2019-04-27T20:51:57.438Z,6.70
2019-04-27T20:54:27.101Z,6.70
2019-04-27T20:56:57.306Z,6.70
2019-04-27T20:59:26.741Z,6.80
2019-04-27T21:01:57.729Z,6.90
2019-04-27T21:04:31.076Z,6.90
2019-04-27T21:07:02.531Z,6.80
2019-04-27T21:09:32.398Z,6.90
2019-04-27T21:12:02.654Z,6.90
2019-04-27T21:14:32.035Z,6.90
2019-04-27T21:17:01.782Z,6.90
2019-04-27T21:19:31.331Z,7.00
2019-04-27T21:22:01.306Z,6.90
2019-04-27T21:24:31.247Z,7.00
2019-04-27T21:27:00.731Z,6.90
2019-04-27T21:29:31.192Z,6.90
2019-04-27T21:32:01.127Z,6.90
2019-04-27T21:34:31.049Z,6.90
2019-04-27T21:37:01.054Z,6.90
2019-04-27T21:39:31.888Z,6.80
2019-04-27T21:42:01.626Z,6.80
2019-04-27T21:44:31.964Z,6.80
2019-04-27T21:47:01.775Z,6.80
2019-04-27T21:49:31.479Z,6.90
2019-04-27T21:52:16.627Z,6.90
2019-04-27T21:54:46.930Z,6.80
2019-04-27T21:57:16.749Z,6.80
2019-04-27T21:59:46.064Z,6.90
2019-04-27T22:02:15.814Z,6.80
2019-04-27T22:04:45.199Z,6.80
2019-04-27T22:07:14.609Z,6.70
2019-04-27T22:09:44.016Z,6.70
2019-04-27T22:12:13.893Z,6.70
2019-04-27T22:14:43.287Z,6.70
2019-04-27T22:17:12.958Z,6.70
2019-04-27T22:19:42.618Z,6.80
2019-04-27T22:22:22.009Z,6.80
2019-04-27T22:24:51.678Z,6.80
2019-04-27T22:27:21.378Z,6.80
2019-04-27T22:29:50.837Z,6.90
2019-04-27T22:32:21.763Z,6.90
2019-04-27T22:34:51.974Z,6.90
2019-04-27T22:37:21.662Z,6.90
2019-04-27T22:40:12.006Z,6.90
2019-04-27T22:43:02.986Z,6.80
2019-04-27T22:45:34.209Z,6.70
2019-04-27T22:48:03.630Z,6.60
2019-04-27T22:50:33.294Z,6.60
2019-04-27T22:53:02.981Z,6.60
2019-04-27T22:55:32.398Z,6.60
2019-04-27T22:58:08.133Z,6.50
2019-04-27T23:01:01.345Z,6.50
2019-04-27T23:03:33.378Z,6.50
2019-04-27T23:06:02.758Z,6.50
2019-04-27T23:08:32.445Z,6.30
2019-04-27T23:11:02.596Z,6.20
2019-04-27T23:13:32.084Z,6.20
2019-04-27T23:16:03.232Z,6.10
2019-04-27T23:18:32.660Z,6.10
2019-04-27T23:21:02.402Z,6.00
2019-04-27T23:23:31.818Z,5.90
2019-04-27T23:26:01.892Z,5.90
2019-04-27T23:28:31.405Z,5.90
2019-04-27T23:31:20.978Z,5.90
2019-04-27T23:33:51.820Z,5.90
2019-04-27T23:36:21.695Z,5.80
2019-04-27T23:38:51.102Z,5.80
2019-04-27T23:41:20.489Z,5.80
2019-04-27T23:43:49.902Z,5.70
2019-04-27T23:46:19.269Z,5.70
2019-04-27T23:48:51.295Z,5.70
2019-04-27T23:51:37.349Z,5.70
2019-04-27T23:54:06.767Z,5.60
2019-04-27T23:56:36.141Z,5.60
2019-04-27T23:59:05.530Z,5.60
